Time;durP1;ratioP1;P1;durP2;ratioP2;P2;SDS_P1;SDS_P2;PMS_P1;PMS_P2;Temp;Humidity;BMP_temperature;BMP_pressure;BME280_temperature;BME280_humidity;BME280_pressure;Samples;Min_cycle;Max_cycle;Signal;HPM_P1;HPM_P2
2022/05/21 00:00:16;;;;;;;68.30;33.27;;;;;;;;;;5056222;28;20068;-61
2022/05/21 00:02:42;;;;;;;66.70;34.27;;;;;;;;;;5051078;28;20044;-62
2022/05/21 00:05:09;;;;;;;56.07;32.07;;;;;;;;;;5053808;28;20048;-62
2022/05/21 00:07:35;;;;;;;59.53;32.57;;;;;;;;;;5064102;28;20070;-62
2022/05/21 00:10:01;;;;;;;58.93;30.13;;;;;;;;;;5069093;28;20437;-62
2022/05/21 00:12:27;;;;;;;61.03;31.60;;;;;;;;;;5069766;28;20055;-62
2022/05/21 00:14:53;;;;;;;59.13;31.53;;;;;;;;;;5068063;28;20075;-62
2022/05/21 00:17:20;;;;;;;67.97;36.60;;;;;;;;;;5069797;28;20435;-62
2022/05/21 00:19:46;;;;;;;79.40;38.73;;;;;;;;;;5053562;28;20044;-62
2022/05/21 00:22:12;;;;;;;64.50;37.23;;;;;;;;;;5054013;28;20785;-62
2022/05/21 00:24:38;;;;;;;73.33;39.57;;;;;;;;;;5070578;28;20102;-62
2022/05/21 00:27:05;;;;;;;65.87;37.97;;;;;;;;;;5059028;28;20087;-62
2022/05/21 00:29:31;;;;;;;93.27;43.17;;;;;;;;;;5069806;28;20816;-62
2022/05/21 00:31:57;;;;;;;76.93;40.53;;;;;;;;;;5070209;28;20045;-62
2022/05/21 00:34:24;;;;;;;81.07;41.07;;;;;;;;;;5056721;28;20040;-62
2022/05/21 00:36:50;;;;;;;76.87;40.07;;;;;;;;;;5069149;28;20048;-62
2022/05/21 00:39:16;;;;;;;84.43;42.77;;;;;;;;;;5064277;28;20040;-62
2022/05/21 00:41:42;;;;;;;76.03;38.53;;;;;;;;;;5069971;28;20048;-62
2022/05/21 00:44:08;;;;;;;81.50;41.20;;;;;;;;;;5051986;28;20140;-62
2022/05/21 00:46:37;;;;;;;75.30;39.50;;;;;;;;;;5055206;28;20515;-62
2022/05/21 00:49:15;;;;;;;84.97;42.73;;;;;;;;;;5070237;28;20106;-62
2022/05/21 00:51:40;;;;;;;96.43;44.27;;;;;;;;;;5068954;28;20089;-62
2022/05/21 00:54:08;;;;;;;89.03;42.80;;;;;;;;;;5051865;28;20044;-62
2022/05/21 00:56:35;;;;;;;80.53;41.63;;;;;;;;;;5057511;28;20060;-62
2022/05/21 01:01:49;;;;;;;101.00;46.13;;;;;;;;;;5066755;28;20056;-62
2022/05/21 01:04:15;;;;;;;100.50;46.93;;;;;;;;;;5063812;28;20139;-62
2022/05/21 01:06:41;;;;;;;96.07;47.43;;;;;;;;;;5069673;28;20075;-62
2022/05/21 01:09:08;;;;;;;106.83;50.97;;;;;;;;;;5065576;28;20550;-62
2022/05/21 01:11:35;;;;;;;118.53;52.53;;;;;;;;;;5061614;28;20630;-62
2022/05/21 01:14:02;;;;;;;102.20;51.23;;;;;;;;;;5069963;28;20051;-62
2022/05/21 01:16:29;;;;;;;95.40;48.47;;;;;;;;;;5056154;28;20045;-62
2022/05/21 01:18:56;;;;;;;132.27;55.63;;;;;;;;;;5049396;28;20049;-62
2022/05/21 01:21:22;;;;;;;101.47;50.73;;;;;;;;;;5048029;28;20103;-62
2022/05/21 01:23:48;;;;;;;104.67;51.13;;;;;;;;;;5055745;28;20102;-62
2022/05/21 01:26:16;;;;;;;125.83;55.47;;;;;;;;;;5068208;28;20036;-62
2022/05/21 01:28:42;;;;;;;106.27;51.53;;;;;;;;;;5062421;28;20048;-62
2022/05/21 01:31:08;;;;;;;113.57;52.10;;;;;;;;;;5048993;28;20056;-62
2022/05/21 01:33:36;;;;;;;94.33;48.47;;;;;;;;;;5064037;28;20047;-62
2022/05/21 01:36:03;;;;;;;108.63;52.10;;;;;;;;;;5069291;28;20400;-62
2022/05/21 01:38:30;;;;;;;98.30;50.67;;;;;;;;;;5058787;28;20049;-62
2022/05/21 01:40:57;;;;;;;97.13;48.23;;;;;;;;;;5050104;28;20107;-62
2022/05/21 01:46:09;;;;;;;101.17;51.50;;;;;;;;;;5056923;28;20045;-63
2022/05/21 01:48:35;;;;;;;86.93;49.80;;;;;;;;;;5048697;28;20041;-62
2022/05/21 01:51:01;;;;;;;91.83;50.10;;;;;;;;;;5049893;28;20128;-62
2022/05/21 01:53:28;;;;;;;112.00;56.77;;;;;;;;;;5060799;28;20080;-62
2022/05/21 01:55:56;;;;;;;91.20;51.60;;;;;;;;;;5056473;28;20119;-62
2022/05/21 01:58:22;;;;;;;84.53;51.73;;;;;;;;;;5048533;28;20041;-63
2022/05/21 02:00:48;;;;;;;95.43;52.17;;;;;;;;;;5060330;28;20038;-62
2022/05/21 02:03:15;;;;;;;80.13;48.10;;;;;;;;;;5067620;28;20048;-62
2022/05/21 02:05:44;;;;;;;82.90;50.70;;;;;;;;;;5067986;28;20131;-62
2022/05/21 02:08:11;;;;;;;91.70;54.13;;;;;;;;;;5066563;28;20131;-63
2022/05/21 02:10:37;;;;;;;92.37;52.33;;;;;;;;;;5067576;28;20083;-62
2022/05/21 02:13:04;;;;;;;81.73;49.30;;;;;;;;;;5066777;28;20036;-62
2022/05/21 02:15:30;;;;;;;78.20;47.70;;;;;;;;;;5066396;28;20495;-62
2022/05/21 02:17:56;;;;;;;87.07;50.13;;;;;;;;;;5068170;28;20040;-62
2022/05/21 02:20:22;;;;;;;82.53;49.07;;;;;;;;;;5067873;28;20056;-62
2022/05/21 02:22:48;;;;;;;76.60;45.23;;;;;;;;;;5066747;28;20063;-62
2022/05/21 02:25:16;;;;;;;76.37;47.87;;;;;;;;;;5058938;28;20041;-62
2022/05/21 02:27:42;;;;;;;88.37;50.10;;;;;;;;;;5068422;28;20485;-62
2022/05/21 02:30:09;;;;;;;78.70;45.30;;;;;;;;;;5067034;28;20094;-62
2022/05/21 02:32:35;;;;;;;104.80;51.73;;;;;;;;;;5050371;28;20813;-63
2022/05/21 02:35:01;;;;;;;85.53;49.40;;;;;;;;;;5051993;28;20594;-62
2022/05/21 02:40:13;;;;;;;63.57;43.23;;;;;;;;;;5062138;28;20091;-62
2022/05/21 02:42:48;;;;;;;71.93;45.50;;;;;;;;;;5070273;28;20051;-62
2022/05/21 02:45:25;;;;;;;73.97;44.00;;;;;;;;;;5070316;28;20072;-62
2022/05/21 02:47:51;;;;;;;78.57;45.10;;;;;;;;;;5069476;28;20652;-62
2022/05/21 02:50:19;;;;;;;82.23;46.17;;;;;;;;;;5051963;28;20179;-62
2022/05/21 02:52:45;;;;;;;71.30;42.70;;;;;;;;;;5052341;28;20051;-62
2022/05/21 02:55:12;;;;;;;65.37;41.03;;;;;;;;;;5072245;28;20048;-62
2022/05/21 02:57:38;;;;;;;72.30;42.07;;;;;;;;;;5070634;28;20044;-62
2022/05/21 03:00:07;;;;;;;62.30;39.63;;;;;;;;;;5071516;28;20038;-62
2022/05/21 03:02:33;;;;;;;71.00;44.07;;;;;;;;;;5070408;28;20048;-62
2022/05/21 03:04:59;;;;;;;60.57;37.70;;;;;;;;;;5052244;28;20041;-62
2022/05/21 03:07:25;;;;;;;64.53;38.50;;;;;;;;;;5072049;28;20568;-62
2022/05/21 03:12:36;;;;;;;62.10;36.33;;;;;;;;;;5072173;28;20049;-62
2022/05/21 03:15:02;;;;;;;69.67;38.80;;;;;;;;;;5066917;28;20033;-62
2022/05/21 03:17:28;;;;;;;58.57;34.37;;;;;;;;;;5071717;28;20614;-62
2022/05/21 03:19:54;;;;;;;56.30;33.27;;;;;;;;;;5071020;28;20071;-62
2022/05/21 03:22:21;;;;;;;71.70;36.07;;;;;;;;;;5071373;28;20044;-62
2022/05/21 03:24:47;;;;;;;60.60;31.07;;;;;;;;;;5069818;28;20063;-62
2022/05/21 03:27:13;;;;;;;47.57;28.57;;;;;;;;;;5070160;28;20052;-62
2022/05/21 03:29:39;;;;;;;78.43;35.90;;;;;;;;;;5071160;28;20131;-62
2022/05/21 03:32:07;;;;;;;53.47;28.57;;;;;;;;;;5069481;28;20131;-62
2022/05/21 03:34:33;;;;;;;46.10;24.53;;;;;;;;;;5070929;28;20127;-62
2022/05/21 03:36:59;;;;;;;49.10;22.13;;;;;;;;;;5069709;28;20048;-62
2022/05/21 03:39:25;;;;;;;42.97;21.43;;;;;;;;;;5063634;28;20149;-64
2022/05/21 03:41:51;;;;;;;40.20;20.17;;;;;;;;;;5050756;28;20064;-63
2022/05/21 03:44:17;;;;;;;40.33;19.70;;;;;;;;;;5051222;28;20041;-63
2022/05/21 03:46:43;;;;;;;40.90;21.33;;;;;;;;;;5058500;28;20658;-63
2022/05/21 03:49:09;;;;;;;38.47;20.47;;;;;;;;;;5066983;28;20090;-63
2022/05/21 03:51:37;;;;;;;38.63;19.87;;;;;;;;;;5070312;28;20044;-63
2022/05/21 03:54:03;;;;;;;41.83;17.90;;;;;;;;;;5069006;28;20088;-63
2022/05/21 03:56:29;;;;;;;46.20;20.30;;;;;;;;;;5054444;28;20103;-63
2022/05/21 03:58:55;;;;;;;45.53;19.63;;;;;;;;;;5050404;28;20071;-64
2022/05/21 04:01:21;;;;;;;47.47;18.23;;;;;;;;;;5049630;28;20045;-64
2022/05/21 04:03:50;;;;;;;36.67;16.53;;;;;;;;;;5060276;28;20062;-63
2022/05/21 04:06:16;;;;;;;38.83;16.63;;;;;;;;;;5069835;28;20084;-63
2022/05/21 04:08:42;;;;;;;33.47;15.50;;;;;;;;;;5065950;28;20040;-63
2022/05/21 04:11:08;;;;;;;38.87;15.70;;;;;;;;;;5049188;28;20087;-63
2022/05/21 04:13:34;;;;;;;36.53;16.67;;;;;;;;;;5049457;28;20041;-63
2022/05/21 04:16:00;;;;;;;47.23;19.17;;;;;;;;;;5049716;28;20068;-63
2022/05/21 04:18:26;;;;;;;38.33;15.43;;;;;;;;;;5050230;28;20075;-64
2022/05/21 04:20:52;;;;;;;40.23;14.90;;;;;;;;;;5055068;28;20068;-63
2022/05/21 04:23:18;;;;;;;40.47;13.30;;;;;;;;;;5070072;28;20044;-63
2022/05/21 04:25:44;;;;;;;39.10;13.40;;;;;;;;;;5050400;28;20071;-63
2022/05/21 04:28:11;;;;;;;34.53;13.03;;;;;;;;;;5049950;28;20063;-63
2022/05/21 04:30:37;;;;;;;30.50;9.87;;;;;;;;;;5053657;28;20045;-63
2022/05/21 04:33:03;;;;;;;38.30;11.93;;;;;;;;;;5054120;28;20056;-63
2022/05/21 04:36:17;;;;;;;27.97;9.97;;;;;;;;;;5050003;28;20040;-63
2022/05/21 04:38:15;;;;;;;34.73;9.97;;;;;;;;;;5049372;28;20045;-64
2022/05/21 04:40:42;;;;;;;32.70;7.70;;;;;;;;;;5049798;28;20407;-63
2022/05/21 04:43:08;;;;;;;27.10;6.73;;;;;;;;;;5050104;28;20045;-63
2022/05/21 04:45:34;;;;;;;21.73;6.60;;;;;;;;;;5049526;28;20051;-63
2022/05/21 04:48:03;;;;;;;23.60;6.20;;;;;;;;;;5067478;28;20040;-63
2022/05/21 04:50:29;;;;;;;21.87;6.60;;;;;;;;;;5069559;28;20044;-63
2022/05/21 04:52:55;;;;;;;21.73;5.20;;;;;;;;;;5066641;28;20521;-63
2022/05/21 04:55:21;;;;;;;19.73;4.73;;;;;;;;;;5053152;28;20044;-63
2022/05/21 04:57:47;;;;;;;20.87;4.90;;;;;;;;;;5048118;28;20052;-63
2022/05/21 05:00:15;;;;;;;19.30;4.97;;;;;;;;;;5049630;28;20045;-63
2022/05/21 05:02:41;;;;;;;14.87;4.93;;;;;;;;;;5048874;28;20128;-63
2022/05/21 05:05:07;;;;;;;15.10;4.77;;;;;;;;;;5050876;28;20236;-63
2022/05/21 05:07:34;;;;;;;21.67;4.77;;;;;;;;;;5049382;28;20037;-63
2022/05/21 05:10:00;;;;;;;20.93;5.00;;;;;;;;;;5049389;28;20495;-63
2022/05/21 05:12:26;;;;;;;27.53;5.70;;;;;;;;;;5047611;28;20049;-63
2022/05/21 05:14:53;;;;;;;21.50;4.90;;;;;;;;;;5049338;28;20056;-63
2022/05/21 05:17:20;;;;;;;21.47;4.53;;;;;;;;;;5050934;28;20082;-63
2022/05/21 05:19:47;;;;;;;26.43;4.90;;;;;;;;;;5068257;28;20045;-63
2022/05/21 05:22:14;;;;;;;29.33;4.73;;;;;;;;;;5066685;28;20044;-63
2022/05/21 05:24:40;;;;;;;25.17;5.90;;;;;;;;;;5067399;28;20055;-63
2022/05/21 05:27:06;;;;;;;22.53;5.07;;;;;;;;;;5067730;28;20508;-63
2022/05/21 05:29:32;;;;;;;22.33;4.93;;;;;;;;;;5066827;28;20040;-63
2022/05/21 05:31:59;;;;;;;17.40;4.27;;;;;;;;;;5058294;28;20110;-63
2022/05/21 05:34:25;;;;;;;23.37;4.53;;;;;;;;;;5047633;28;20052;-63
2022/05/21 05:36:51;;;;;;;19.73;4.70;;;;;;;;;;5048993;28;20045;-63
2022/05/21 05:39:17;;;;;;;20.23;4.83;;;;;;;;;;5047051;28;20056;-63
2022/05/21 05:41:44;;;;;;;19.83;4.00;;;;;;;;;;5048823;28;20056;-63
2022/05/21 05:44:10;;;;;;;19.97;4.47;;;;;;;;;;5048845;28;20049;-63
2022/05/21 05:46:36;;;;;;;17.10;3.93;;;;;;;;;;5048043;28;20057;-63
2022/05/21 05:49:03;;;;;;;15.80;4.30;;;;;;;;;;5049005;28;20057;-63
2022/05/21 05:51:29;;;;;;;22.20;3.93;;;;;;;;;;5059891;28;20053;-63
2022/05/21 05:53:55;;;;;;;23.53;4.40;;;;;;;;;;5048082;28;20045;-63
2022/05/21 05:56:21;;;;;;;24.20;4.27;;;;;;;;;;5059206;28;20040;-63
2022/05/21 06:01:32;;;;;;;20.53;4.10;;;;;;;;;;5067602;28;20052;-62
2022/05/21 06:03:58;;;;;;;17.57;4.23;;;;;;;;;;5056089;28;20045;-63
2022/05/21 06:06:25;;;;;;;16.73;3.60;;;;;;;;;;5048052;28;20057;-63
2022/05/21 06:08:51;;;;;;;18.77;4.03;;;;;;;;;;5048527;28;20156;-62
2022/05/21 06:11:18;;;;;;;15.90;3.93;;;;;;;;;;5048318;28;20115;-63
2022/05/21 06:13:44;;;;;;;19.20;4.10;;;;;;;;;;5047187;28;20076;-63
2022/05/21 06:16:11;;;;;;;18.90;4.00;;;;;;;;;;5047973;28;20123;-63
2022/05/21 06:18:37;;;;;;;24.37;5.30;;;;;;;;;;5050111;28;20041;-63
2022/05/21 06:21:04;;;;;;;14.43;3.57;;;;;;;;;;5046574;28;20079;-62
2022/05/21 06:23:33;;;;;;;21.40;3.47;;;;;;;;;;5048177;28;20452;-62
2022/05/21 06:26:00;;;;;;;18.83;4.47;;;;;;;;;;5048225;28;20519;-63
2022/05/21 06:28:29;;;;;;;20.77;4.80;;;;;;;;;;5048126;28;20044;-63
2022/05/21 06:30:55;;;;;;;13.13;3.60;;;;;;;;;;5054712;28;20044;-62
2022/05/21 06:33:25;;;;;;;18.83;4.20;;;;;;;;;;5068076;28;20047;-62
2022/05/21 06:36:01;;;;;;;16.13;5.13;;;;;;;;;;5067698;28;20815;-62
2022/05/21 06:38:27;;;;;;;12.40;3.53;;;;;;;;;;5067972;28;20037;-62
2022/05/21 06:40:53;;;;;;;18.03;3.97;;;;;;;;;;5067302;28;20059;-62
2022/05/21 06:43:21;;;;;;;23.67;4.30;;;;;;;;;;5067548;28;20040;-62
2022/05/21 06:45:47;;;;;;;15.70;3.47;;;;;;;;;;5059251;28;20052;-62
2022/05/21 06:48:13;;;;;;;13.87;3.20;;;;;;;;;;5047408;28;20049;-62
2022/05/21 06:50:39;;;;;;;15.07;3.83;;;;;;;;;;5047387;28;20045;-62
2022/05/21 06:53:05;;;;;;;15.43;3.57;;;;;;;;;;5047833;28;20403;-62
2022/05/21 06:55:32;;;;;;;16.43;3.57;;;;;;;;;;5047115;28;20057;-62
2022/05/21 06:57:57;;;;;;;18.70;4.20;;;;;;;;;;5047910;28;20418;-62
2022/05/21 07:00:24;;;;;;;19.50;3.97;;;;;;;;;;5047971;28;20033;-62
2022/05/21 07:02:51;;;;;;;19.77;3.70;;;;;;;;;;5047958;28;20124;-61
2022/05/21 07:08:03;;;;;;;17.40;4.10;;;;;;;;;;5047529;28;20044;-62
2022/05/21 07:10:30;;;;;;;17.30;4.13;;;;;;;;;;5047969;28;20419;-62
2022/05/21 07:12:57;;;;;;;12.20;2.87;;;;;;;;;;5047694;28;20102;-62
2022/05/21 07:15:23;;;;;;;13.43;3.33;;;;;;;;;;5061725;28;20045;-62
2022/05/21 07:17:49;;;;;;;11.83;3.20;;;;;;;;;;5067528;28;20127;-62
2022/05/21 07:20:19;;;;;;;11.70;3.00;;;;;;;;;;5067323;28;20127;-62
2022/05/21 07:22:47;;;;;;;16.93;3.97;;;;;;;;;;5067302;28;20044;-62
2022/05/21 07:25:14;;;;;;;13.87;3.43;;;;;;;;;;5068813;28;20067;-62
2022/05/21 07:27:41;;;;;;;14.30;2.70;;;;;;;;;;5071420;28;20124;-62
2022/05/21 07:30:07;;;;;;;14.83;3.00;;;;;;;;;;5061771;28;20087;-62
2022/05/21 07:32:34;;;;;;;12.80;2.83;;;;;;;;;;5070660;28;20051;-61
2022/05/21 07:35:04;;;;;;;11.60;2.77;;;;;;;;;;5070615;28;20044;-61
2022/05/21 07:37:30;;;;;;;11.70;2.77;;;;;;;;;;5070685;28;20430;-61
2022/05/21 07:39:56;;;;;;;10.37;2.40;;;;;;;;;;5070499;28;20052;-61
2022/05/21 07:42:22;;;;;;;10.93;3.70;;;;;;;;;;5070851;28;20053;-61
2022/05/21 07:44:49;;;;;;;13.93;2.67;;;;;;;;;;5055927;28;20041;-61
2022/05/21 07:47:15;;;;;;;12.53;2.50;;;;;;;;;;5050529;28;20037;-62
2022/05/21 07:49:41;;;;;;;9.07;2.33;;;;;;;;;;5049640;28;20041;-61
2022/05/21 07:52:08;;;;;;;13.27;3.03;;;;;;;;;;5050333;28;20049;-61
2022/05/21 07:54:34;;;;;;;10.97;2.93;;;;;;;;;;5049918;28;20793;-61
2022/05/21 07:57:01;;;;;;;10.83;3.17;;;;;;;;;;5050561;28;20041;-61
2022/05/21 07:59:27;;;;;;;14.73;3.00;;;;;;;;;;5063540;28;20071;-61
2022/05/21 08:01:53;;;;;;;13.03;2.57;;;;;;;;;;5052223;28;20057;-61
2022/05/21 08:04:19;;;;;;;14.23;2.47;;;;;;;;;;5067905;28;20052;-61
2022/05/21 08:06:45;;;;;;;9.90;2.43;;;;;;;;;;5070510;28;20044;-61
2022/05/21 08:09:11;;;;;;;12.77;2.80;;;;;;;;;;5069504;28;20052;-61
2022/05/21 08:11:38;;;;;;;13.70;2.27;;;;;;;;;;5069094;28;20041;-62
2022/05/21 08:14:04;;;;;;;17.80;2.60;;;;;;;;;;5069929;28;20051;-62
2022/05/21 08:16:30;;;;;;;12.87;3.10;;;;;;;;;;5070141;28;20052;-61
2022/05/21 08:18:57;;;;;;;13.13;2.20;;;;;;;;;;5069994;28;20518;-61
2022/05/21 08:21:23;;;;;;;10.10;2.33;;;;;;;;;;5068587;28;20048;-61
2022/05/21 08:29:19;;;;;;;8.83;1.87;;;;;;;;;;5049914;28;20143;-61
2022/05/21 08:31:45;;;;;;;9.07;2.27;;;;;;;;;;5050021;28;20103;-61
2022/05/21 08:34:11;;;;;;;8.97;1.87;;;;;;;;;;5050958;28;20041;-61
2022/05/21 08:36:37;;;;;;;8.27;1.93;;;;;;;;;;5048829;28;20045;-61
2022/05/21 08:39:03;;;;;;;9.90;1.83;;;;;;;;;;5050053;28;20045;-61
2022/05/21 08:41:31;;;;;;;10.87;2.10;;;;;;;;;;5049560;28;20056;-61
2022/05/21 08:44:03;;;;;;;8.50;1.63;;;;;;;;;;5049656;28;20049;-61
2022/05/21 08:46:35;;;;;;;10.37;2.73;;;;;;;;;;5049737;28;20091;-61
2022/05/21 08:49:02;;;;;;;7.32;1.92;;;;;;;;;;5050015;28;20132;-62
2022/05/21 08:51:32;;;;;;;10.80;2.67;;;;;;;;;;5049671;28;20105;-61
2022/05/21 08:54:00;;;;;;;8.90;2.23;;;;;;;;;;5049444;28;20052;-62
2022/05/21 08:56:27;;;;;;;10.93;1.77;;;;;;;;;;5047838;28;20074;-61
2022/05/21 08:59:03;;;;;;;9.10;1.93;;;;;;;;;;5049697;28;20045;-61
2022/05/21 09:01:30;;;;;;;9.83;2.40;;;;;;;;;;5049556;28;20047;-61
2022/05/21 09:03:57;;;;;;;13.10;2.73;;;;;;;;;;5049710;28;20052;-61
2022/05/21 09:06:23;;;;;;;10.57;2.23;;;;;;;;;;5049170;28;20055;-62
2022/05/21 09:08:55;;;;;;;9.67;2.40;;;;;;;;;;5049345;28;20120;-61
2022/05/21 09:11:36;;;;;;;11.07;2.70;;;;;;;;;;5049253;28;20041;-61
2022/05/21 09:14:02;;;;;;;7.03;2.07;;;;;;;;;;5049322;28;20045;-61
2022/05/21 09:19:20;;;;;;;12.80;2.87;;;;;;;;;;5068677;28;20484;-61
2022/05/21 09:21:46;;;;;;;7.43;2.03;;;;;;;;;;5066869;28;20105;-61
2022/05/21 09:24:32;;;;;;;9.03;2.30;;;;;;;;;;5068878;28;20048;-61
2022/05/21 09:26:58;;;;;;;6.37;1.83;;;;;;;;;;5068599;28;20387;-61
2022/05/21 09:29:26;;;;;;;9.03;1.90;;;;;;;;;;5068923;28;20089;-61
2022/05/21 09:31:55;;;;;;;10.23;2.50;;;;;;;;;;5068293;28;20805;-61
2022/05/21 09:34:21;;;;;;;7.07;2.10;;;;;;;;;;5052041;28;20037;-62
2022/05/21 09:36:47;;;;;;;10.63;2.00;;;;;;;;;;5048972;28;20052;-61
2022/05/21 09:39:28;;;;;;;8.57;2.03;;;;;;;;;;5048282;28;20242;-61
2022/05/21 09:42:06;;;;;;;10.20;2.00;;;;;;;;;;5048968;28;20060;-61
2022/05/21 09:47:25;;;;;;;9.57;3.03;;;;;;;;;;5048602;28;20491;-61
2022/05/21 09:50:00;;;;;;;7.97;2.67;;;;;;;;;;5048221;28;20041;-61
2022/05/21 09:52:29;;;;;;;10.60;2.07;;;;;;;;;;5048090;28;20202;-61
2022/05/21 09:54:55;;;;;;;9.53;2.10;;;;;;;;;;5048253;28;20048;-61
2022/05/21 09:57:30;;;;;;;7.97;1.77;;;;;;;;;;5048294;28;20045;-61
2022/05/21 10:00:19;;;;;;;10.37;1.97;;;;;;;;;;5048371;28;20053;-61
2022/05/21 10:02:47;;;;;;;8.53;2.23;;;;;;;;;;5049372;28;20142;-61
2022/05/21 10:05:35;;;;;;;6.63;1.70;;;;;;;;;;5047870;28;20053;-61
2022/05/21 10:11:11;;;;;;;8.67;2.00;;;;;;;;;;5048140;28;20053;-61
2022/05/21 10:13:46;;;;;;;6.40;1.75;;;;;;;;;;5047893;28;20110;-61
2022/05/21 10:16:11;;;;;;;7.97;1.87;;;;;;;;;;5048225;28;20323;-61
2022/05/21 10:18:40;;;;;;;11.20;2.60;;;;;;;;;;5052746;28;20491;-61
2022/05/21 10:21:26;;;;;;;8.53;1.60;;;;;;;;;;5068038;28;20037;-61
2022/05/21 10:23:56;;;;;;;9.07;2.67;;;;;;;;;;5055544;28;20151;-61
2022/05/21 10:26:40;;;;;;;5.47;1.57;;;;;;;;;;5067993;28;20048;-61
2022/05/21 10:29:13;;;;;;;6.80;1.90;;;;;;;;;;5067995;28;20074;-61
2022/05/21 10:31:46;;;;;;;6.97;1.83;;;;;;;;;;5060974;28;20068;-61
2022/05/21 10:34:18;;;;;;;5.95;1.70;;;;;;;;;;5047498;28;20055;-61
2022/05/21 10:36:54;;;;;;;7.13;1.73;;;;;;;;;;5047749;28;20145;-60
2022/05/21 10:39:23;;;;;;;8.20;2.00;;;;;;;;;;5046067;28;20053;-61
2022/05/21 10:42:00;;;;;;;9.73;1.77;;;;;;;;;;5047590;28;20183;-61
2022/05/21 10:44:26;;;;;;;8.80;2.13;;;;;;;;;;5047316;28;20053;-60
2022/05/21 10:47:10;;;;;;;10.90;2.30;;;;;;;;;;5047852;28;20732;-61
2022/05/21 10:49:57;;;;;;;8.10;2.03;;;;;;;;;;5047726;28;20052;-61
2022/05/21 10:52:25;;;;;;;7.43;2.50;;;;;;;;;;5047960;28;20431;-61
2022/05/21 10:54:59;;;;;;;9.27;2.20;;;;;;;;;;5048028;28;20045;-61
2022/05/21 10:57:33;;;;;;;7.77;1.80;;;;;;;;;;5047365;28;20048;-60
2022/05/21 11:00:09;;;;;;;8.63;2.10;;;;;;;;;;5049294;28;20041;-60
2022/05/21 11:02:53;;;;;;;7.13;1.80;;;;;;;;;;5051770;28;20398;-60
2022/05/21 11:05:31;;;;;;;7.77;2.30;;;;;;;;;;5050171;28;20534;-60
2022/05/21 11:08:02;;;;;;;8.23;2.37;;;;;;;;;;5061465;28;20044;-60
2022/05/21 11:10:28;;;;;;;6.70;1.60;;;;;;;;;;5071139;28;20456;-60
2022/05/21 11:12:57;;;;;;;5.17;1.53;;;;;;;;;;5053141;28;20054;-61
2022/05/21 11:15:42;;;;;;;5.73;1.63;;;;;;;;;;5071054;28;20123;-60
2022/05/21 11:18:16;;;;;;;6.63;1.57;;;;;;;;;;5058362;28;20156;-60
2022/05/21 11:20:48;;;;;;;9.47;3.23;;;;;;;;;;5051145;28;20139;-61
2022/05/21 11:23:19;;;;;;;5.40;2.33;;;;;;;;;;5051233;28;20045;-60
2022/05/21 11:26:09;;;;;;;7.00;1.73;;;;;;;;;;5051420;28;20411;-60
2022/05/21 11:28:49;;;;;;;7.20;1.80;;;;;;;;;;5050947;28;20049;-60
2022/05/21 11:31:15;;;;;;;4.83;1.30;;;;;;;;;;5050904;28;20049;-60
2022/05/21 11:39:16;;;;;;;5.53;1.50;;;;;;;;;;5050661;28;20132;-60
2022/05/21 11:41:54;;;;;;;7.47;1.87;;;;;;;;;;5051083;28;20045;-60
2022/05/21 11:47:06;;;;;;;9.30;2.03;;;;;;;;;;5050807;28;20041;-60
2022/05/21 11:49:32;;;;;;;8.00;2.07;;;;;;;;;;5050485;28;20092;-60
2022/05/21 11:51:58;;;;;;;9.20;1.57;;;;;;;;;;5050632;28;20503;-60
2022/05/21 11:54:43;;;;;;;7.43;1.93;;;;;;;;;;5050305;28;20059;-60
2022/05/21 11:57:09;;;;;;;4.43;1.50;;;;;;;;;;5050848;28;20718;-60
2022/05/21 11:59:53;;;;;;;5.83;1.97;;;;;;;;;;5049657;28;20644;-60
2022/05/21 12:02:30;;;;;;;7.00;1.70;;;;;;;;;;5061776;28;20045;-60
2022/05/21 12:04:58;;;;;;;6.40;2.23;;;;;;;;;;5051384;28;20059;-60
2022/05/21 12:07:45;;;;;;;5.80;1.90;;;;;;;;;;5050508;28;20462;-60
2022/05/21 12:10:30;;;;;;;7.97;2.10;;;;;;;;;;5050503;28;20045;-60
2022/05/21 12:13:05;;;;;;;8.87;2.30;;;;;;;;;;5050404;28;20097;-60
2022/05/21 12:15:37;;;;;;;8.73;1.80;;;;;;;;;;5049983;28;20048;-60
2022/05/21 12:18:06;;;;;;;6.83;1.60;;;;;;;;;;5048628;28;20063;-60
2022/05/21 12:20:38;;;;;;;9.73;2.07;;;;;;;;;;5048666;28;20053;-60
2022/05/21 12:23:04;;;;;;;6.83;1.70;;;;;;;;;;5049787;28;20041;-60
2022/05/21 12:25:42;;;;;;;7.17;1.90;;;;;;;;;;5050081;28;20045;-60
2022/05/21 12:28:09;;;;;;;7.77;1.63;;;;;;;;;;5050120;28;20044;-60
2022/05/21 12:30:35;;;;;;;5.80;1.50;;;;;;;;;;5053118;28;20573;-60
2022/05/21 12:33:01;;;;;;;6.47;2.00;;;;;;;;;;5049741;28;20095;-60
2022/05/21 12:35:34;;;;;;;7.93;1.97;;;;;;;;;;5049684;28;20131;-60
2022/05/21 12:38:11;;;;;;;7.72;1.90;;;;;;;;;;5049728;28;20069;-60
2022/05/21 12:40:40;;;;;;;6.37;2.20;;;;;;;;;;5048983;28;20056;-60
2022/05/21 12:43:10;;;;;;;8.67;1.63;;;;;;;;;;5049450;28;20127;-60
2022/05/21 12:45:43;;;;;;;8.63;1.60;;;;;;;;;;5049441;28;20111;-60
2022/05/21 12:48:09;;;;;;;6.93;1.73;;;;;;;;;;5049564;28;20080;-60
2022/05/21 12:50:36;;;;;;;7.30;1.97;;;;;;;;;;5049388;28;20095;-60
2022/05/21 12:53:04;;;;;;;8.50;2.10;;;;;;;;;;5049753;28;20041;-61
2022/05/21 12:55:32;;;;;;;7.30;2.23;;;;;;;;;;5049827;28;20080;-60
2022/05/21 12:57:59;;;;;;;7.83;2.40;;;;;;;;;;5049927;28;20502;-60
2022/05/21 13:00:31;;;;;;;6.57;1.80;;;;;;;;;;5067419;28;20350;-60
2022/05/21 13:02:58;;;;;;;6.47;1.97;;;;;;;;;;5054107;28;20056;-60
2022/05/21 13:05:30;;;;;;;8.47;2.07;;;;;;;;;;5049338;28;20056;-60
2022/05/21 13:08:01;;;;;;;7.70;1.70;;;;;;;;;;5048868;28;20056;-60
2022/05/21 13:10:28;;;;;;;8.20;1.77;;;;;;;;;;5049491;28;20494;-60
2022/05/21 13:13:06;;;;;;;6.63;1.95;;;;;;;;;;5048422;28;20163;-60
2022/05/21 13:15:40;;;;;;;5.93;1.60;;;;;;;;;;5048608;28;20127;-60
2022/05/21 13:18:25;;;;;;;8.15;1.92;;;;;;;;;;5049137;28;20041;-60
2022/05/21 13:21:01;;;;;;;6.53;1.58;;;;;;;;;;5049024;28;20059;-60
2022/05/21 13:23:39;;;;;;;7.35;2.08;;;;;;;;;;5054776;28;20052;-60
2022/05/21 13:26:05;;;;;;;4.95;1.55;;;;;;;;;;5068807;28;20074;-60
2022/05/21 13:28:31;;;;;;;10.38;2.78;;;;;;;;;;5055582;28;20049;-60
2022/05/21 13:30:57;;;;;;;7.38;2.03;;;;;;;;;;5048479;28;20067;-60
2022/05/21 13:33:37;;;;;;;7.63;1.60;;;;;;;;;;5048344;28;20519;-60
2022/05/21 13:36:05;;;;;;;5.70;1.57;;;;;;;;;;5048347;28;20044;-60
2022/05/21 13:38:33;;;;;;;7.30;1.80;;;;;;;;;;5057354;28;20052;-60
2022/05/21 13:41:00;;;;;;;4.27;1.30;;;;;;;;;;5068281;28;20482;-60
2022/05/21 13:43:36;;;;;;;6.33;1.80;;;;;;;;;;5068272;28;20503;-60
2022/05/21 13:46:02;;;;;;;6.60;1.67;;;;;;;;;;5068540;28;20135;-60
2022/05/21 13:48:48;;;;;;;4.30;1.50;;;;;;;;;;5068754;28;20076;-60
2022/05/21 13:51:15;;;;;;;6.40;1.90;;;;;;;;;;5067902;28;20102;-60
2022/05/21 13:53:42;;;;;;;8.90;1.67;;;;;;;;;;5055672;28;20461;-60
2022/05/21 13:56:27;;;;;;;10.07;2.17;;;;;;;;;;5057796;28;20054;-60
2022/05/21 13:59:22;;;;;;;8.13;2.20;;;;;;;;;;5067574;28;20139;-60
2022/05/21 14:01:53;;;;;;;9.67;1.80;;;;;;;;;;5063646;28;20052;-60
2022/05/21 14:04:48;;;;;;;5.60;2.00;;;;;;;;;;5068071;28;20048;-60
2022/05/21 14:07:21;;;;;;;6.03;1.75;;;;;;;;;;5059185;28;20367;-60
2022/05/21 14:09:48;;;;;;;5.35;1.55;;;;;;;;;;5055876;28;20390;-60
2022/05/21 14:12:40;;;;;;;9.35;1.95;;;;;;;;;;5067797;28;20044;-60
2022/05/21 14:15:19;;;;;;;9.25;2.22;;;;;;;;;;5059318;28;20080;-60
2022/05/21 14:17:53;;;;;;;7.72;2.05;;;;;;;;;;5068182;28;20048;-60
2022/05/21 14:20:20;;;;;;;11.10;2.53;;;;;;;;;;5066589;28;20048;-60
2022/05/21 14:22:47;;;;;;;12.80;2.47;;;;;;;;;;5058715;28;20115;-61
2022/05/21 14:25:21;;;;;;;9.48;2.38;;;;;;;;;;5047111;28;20055;-60
2022/05/21 14:28:02;;;;;;;10.40;2.50;;;;;;;;;;5048127;28;20095;-60
2022/05/21 14:30:29;;;;;;;9.20;2.58;;;;;;;;;;5047806;28;20124;-60
2022/05/21 14:32:55;;;;;;;7.18;3.03;;;;;;;;;;5047537;28;20136;-60
2022/05/21 14:35:21;;;;;;;8.80;2.25;;;;;;;;;;5049614;28;20511;-61
2022/05/21 14:37:48;;;;;;;7.72;2.17;;;;;;;;;;5051980;28;20052;-61
2022/05/21 14:40:16;;;;;;;6.82;2.67;;;;;;;;;;5050681;28;20053;-60
2022/05/21 14:42:42;;;;;;;8.05;2.13;;;;;;;;;;5051678;28;20045;-60
2022/05/21 14:45:29;;;;;;;8.73;1.98;;;;;;;;;;5067896;28;20055;-60
2022/05/21 14:47:55;;;;;;;9.25;2.20;;;;;;;;;;5071995;28;20050;-61
2022/05/21 14:53:10;;;;;;;9.93;2.42;;;;;;;;;;5072001;28;20044;-60
2022/05/21 14:55:37;;;;;;;10.43;2.60;;;;;;;;;;5071802;28;20052;-60
2022/05/21 14:58:03;;;;;;;8.23;2.63;;;;;;;;;;5070149;28;20098;-60
2022/05/21 15:00:30;;;;;;;11.97;2.53;;;;;;;;;;5052231;28;20103;-60
2022/05/21 15:02:56;;;;;;;10.63;2.63;;;;;;;;;;5051541;28;20056;-60
2022/05/21 15:05:23;;;;;;;8.33;2.10;;;;;;;;;;5051336;28;20510;-60
2022/05/21 15:07:50;;;;;;;9.47;2.70;;;;;;;;;;5051053;28;20091;-60
2022/05/21 15:10:17;;;;;;;8.63;2.77;;;;;;;;;;5049841;28;20041;-59
2022/05/21 15:12:43;;;;;;;11.23;2.70;;;;;;;;;;5051572;28;20041;-60
2022/05/21 15:15:10;;;;;;;9.63;2.43;;;;;;;;;;5051540;28;20106;-59
2022/05/21 15:17:36;;;;;;;8.20;2.17;;;;;;;;;;5051367;28;20550;-60
2022/05/21 15:20:03;;;;;;;11.37;2.53;;;;;;;;;;5051583;28;20140;-60
2022/05/21 15:22:33;;;;;;;11.23;2.70;;;;;;;;;;5051318;28;20037;-60